Minerva — CSXI4 — position and weather

sailwx.info

Track history (hours):
 
Tides and Currents Weather Stations Pressure Air Temp Water Temp Dewpoint Dewpoint Depression Visibility Wind Speed Wind Dir Waves Ship Positions

Minerva

Last reported at 2014-Aug-03 11:06 UTC. Time now 2014-Nov-23 08:48 UTC.
Position N 37°57' W 008°52'.
Warning: this ship's position is months out of date.

Length 11 m; draft 1.5 m.

Type: Pilot. MMSI: 263700025.

Date/timePositionNaut miles runAvg speedWind from/ knotsBaromVisibWave heightAir tempDewpointWater temp
2014-Aug-03 11:06N 37°57' W 008°52'1 1.7
2014-Aug-03 10:33N 37°56' W 008°51'0 0.2
2014-Aug-03 09:33N 37°56' W 008°51'1 0.5
2014-Aug-03 08:33N 37°56' W 008°51'1 1.0
2014-Aug-03 07:12N 37°57' W 008°52'0 0.0
2014-Aug-03 06:33N 37°57' W 008°52'0 0.0
2014-Aug-03 01:08N 37°57' W 008°52'0 0.0
2014-Aug-02 20:33N 37°57' W 008°52'0 0.0
2014-Aug-02 16:33N 37°57' W 008°52'1 0.8
2014-Aug-02 15:33N 37°56' W 008°52'1 0.2
2014-Aug-02 12:09N 37°57' W 008°52'1 1.9
2014-Aug-02 11:33N 37°56' W 008°51'0 0.0
2014-Aug-02 08:34N 37°56' W 008°51'1 0.7
2014-Aug-02 07:06N 37°57' W 008°52'1 2.3
2014-Aug-02 06:33N 37°57' W 008°53'0 0.1
2014-Aug-02 01:33N 37°57' W 008°53'1 0.2
2014-Aug-01 21:06N 37°57' W 008°52'0 0.6
2014-Aug-01 20:24N 37°56' W 008°51'0 0.5
2014-Aug-01 19:33N 37°57' W 008°52'0 0.0
2014-Aug-01 08:22N 37°57' W 008°52'1 0.3
2014-Aug-01 03:33N 37°56' W 008°52'2 0.8
2014-Aug-01 01:33N 37°57' W 008°53'2 2.1
2014-Aug-01 00:33N 37°56' W 008°51'0 0.2
2014-Jul-31 23:20N 37°56' W 008°51'2 2.3
2014-Jul-31 22:33N 37°55' W 008°53'2 1.8
2014-Jul-31 21:33N 37°57' W 008°52'0 0.0
2014-Jul-31 11:16N 37°57' W 008°52'0 0.0
2014-Jul-31 07:30N 37°57' W 008°52'2 0.5
2014-Jul-31 03:08N 37°55' W 008°53'2 0.3
2014-Jul-30 19:11N 37°57' W 008°52'1 1.8
2014-Jul-30 18:33N 37°56' W 008°51'2 2.2
2014-Jul-30 17:33N 37°57' W 008°53'1 0.2
2014-Jul-30 10:22N 37°57' W 008°52'1 1.7
2014-Jul-30 09:33N 37°55' W 008°51'1 1.5
2014-Jul-30 08:33N 37°57' W 008°52'0 0.4
2014-Jul-30 07:33N 37°56' W 008°52'1 0.2
2014-Jul-30 04:33N 37°57' W 008°52'1 0.7
2014-Jul-30 03:33N 37°57' W 008°53'3 0.6
2014-Jul-29 22:33N 37°54' W 008°51'2 1.1
2014-Jul-29 20:19N 37°57' W 008°52'1 1.4
2014-Jul-29 19:33N 37°56' W 008°51'2 0.6
2014-Jul-29 15:33N 37°57' W 008°53'1 0.2
2014-Jul-29 10:10N 37°57' W 008°52'0 0.5
2014-Jul-29 09:33N 37°57' W 008°52'1 0.8
2014-Jul-29 08:33N 37°57' W 008°53'1 0.2
2014-Jul-29 02:19N 37°57' W 008°52'1 1.3
2014-Jul-29 01:33N 37°56' W 008°51'1 1.0
2014-Jul-29 00:33N 37°57' W 008°52'1 1.0
2014-Jul-28 23:33N 37°57' W 008°53'0 0.1
2014-Jul-28 22:33N 37°57' W 008°53'1 0.3
2014-Jul-28 18:33N 37°56' W 008°52'1 0.4
2014-Jul-28 16:08N 37°57' W 008°52'1 1.2
2014-Jul-28 15:33N 37°56' W 008°51'2 1.5
2014-Jul-28 14:33N 37°57' W 008°53'3 1.4
2014-Jul-28 12:33N 37°54' W 008°52'1 0.7
2014-Jul-28 11:33N 37°54' W 008°51'3 3.3
2014-Jul-28 10:33N 37°57' W 008°52'1 0.0
2014-Jul-27 16:33N 37°57' W 008°52'1 1.1
2014-Jul-27 15:33N 37°56' W 008°51'2 2.2
2014-Jul-27 14:33N 37°57' W 008°53'1 0.6
2014-Jul-27 12:23N 37°57' W 008°52'2 0.4
2014-Jul-27 07:33N 37°55' W 008°51'2 2.0
2014-Jul-27 06:33N 37°57' W 008°52'1 1.2
2014-Jul-27 05:33N 37°56' W 008°51'1 0.1
2014-Jul-26 21:18N 37°57' W 008°52'1 1.2
2014-Jul-26 20:33N 37°56' W 008°51'1 0.1
2014-Jul-26 16:33N 37°55' W 008°51'0 0.3
2014-Jul-26 15:33N 37°55' W 008°51'2 0.4
2014-Jul-26 11:14N 37°57' W 008°52'1 1.9
2014-Jul-26 10:33N 37°57' W 008°53'3 1.1
2014-Jul-26 07:33N 37°55' W 008°50'2 0.6
2014-Jul-26 03:24N 37°57' W 008°52'1 1.4
2014-Jul-26 02:33N 37°57' W 008°53'1 0.6
2014-Jul-26 00:32N 37°57' W 008°52'0 0.0
2014-Jul-25 22:07N 37°57' W 008°52'0 0.0
2014-Jul-25 21:33N 37°57' W 008°52'1 0.3
2014-Jul-25 16:33N 37°56' W 008°51'2 0.9
2014-Jul-25 14:33N 37°57' W 008°52'1 0.8
2014-Jul-25 13:33N 37°56' W 008°52'3 0.3
2014-Jul-25 03:33N 37°54' W 008°50'3 0.5
2014-Jul-24 20:33N 37°57' W 008°52'1 0.6
2014-Jul-24 19:34N 37°56' W 008°52'0 0.0
2014-Jul-24 17:33N 37°56' W 008°52'0 0.1
2014-Jul-24 12:33N 37°57' W 008°52'1 0.6
2014-Jul-24 11:33N 37°56' W 008°51'  
Track history (hours):
 
Tides and Currents Weather Stations Pressure Air Temp Water Temp Dewpoint Dewpoint Depression Visibility Wind Speed Wind Dir Waves Ship Positions

Minerva

Last reported at 2014-Aug-03 11:06 UTC. Time now 2014-Nov-23 08:48 UTC.
Position N 37°57' W 008°52'.
Warning: this ship's position is months out of date.

Length 11 m; draft 1.5 m.

Type: Pilot. MMSI: 263700025.

Date/timePositionNaut miles runAvg speedWind from/ knotsBaromVisibWave heightAir tempDewpointWater temp
2014-Aug-03 11:06N 37°57' W 008°52'1 1.7
2014-Aug-03 10:33N 37°56' W 008°51'0 0.2
2014-Aug-03 09:33N 37°56' W 008°51'1 0.5
2014-Aug-03 08:33N 37°56' W 008°51'1 1.0
2014-Aug-03 07:12N 37°57' W 008°52'0 0.0
2014-Aug-03 06:33N 37°57' W 008°52'0 0.0
2014-Aug-03 01:08N 37°57' W 008°52'0 0.0
2014-Aug-02 20:33N 37°57' W 008°52'0 0.0
2014-Aug-02 16:33N 37°57' W 008°52'1 0.8
2014-Aug-02 15:33N 37°56' W 008°52'1 0.2
2014-Aug-02 12:09N 37°57' W 008°52'1 1.9
2014-Aug-02 11:33N 37°56' W 008°51'0 0.0
2014-Aug-02 08:34N 37°56' W 008°51'1 0.7
2014-Aug-02 07:06N 37°57' W 008°52'1 2.3
2014-Aug-02 06:33N 37°57' W 008°53'0 0.1
2014-Aug-02 01:33N 37°57' W 008°53'1 0.2
2014-Aug-01 21:06N 37°57' W 008°52'0 0.6
2014-Aug-01 20:24N 37°56' W 008°51'0 0.5
2014-Aug-01 19:33N 37°57' W 008°52'0 0.0
2014-Aug-01 08:22N 37°57' W 008°52'1 0.3
2014-Aug-01 03:33N 37°56' W 008°52'2 0.8
2014-Aug-01 01:33N 37°57' W 008°53'2 2.1
2014-Aug-01 00:33N 37°56' W 008°51'0 0.2
2014-Jul-31 23:20N 37°56' W 008°51'2 2.3
2014-Jul-31 22:33N 37°55' W 008°53'2 1.8
2014-Jul-31 21:33N 37°57' W 008°52'0 0.0
2014-Jul-31 11:16N 37°57' W 008°52'0 0.0
2014-Jul-31 07:30N 37°57' W 008°52'2 0.5
2014-Jul-31 03:08N 37°55' W 008°53'2 0.3
2014-Jul-30 19:11N 37°57' W 008°52'1 1.8
2014-Jul-30 18:33N 37°56' W 008°51'2 2.2
2014-Jul-30 17:33N 37°57' W 008°53'1 0.2
2014-Jul-30 10:22N 37°57' W 008°52'1 1.7
2014-Jul-30 09:33N 37°55' W 008°51'1 1.5
2014-Jul-30 08:33N 37°57' W 008°52'0 0.4
2014-Jul-30 07:33N 37°56' W 008°52'1 0.2
2014-Jul-30 04:33N 37°57' W 008°52'1 0.7
2014-Jul-30 03:33N 37°57' W 008°53'3 0.6
2014-Jul-29 22:33N 37°54' W 008°51'2 1.1
2014-Jul-29 20:19N 37°57' W 008°52'1 1.4
2014-Jul-29 19:33N 37°56' W 008°51'2 0.6
2014-Jul-29 15:33N 37°57' W 008°53'1 0.2
2014-Jul-29 10:10N 37°57' W 008°52'0 0.5
2014-Jul-29 09:33N 37°57' W 008°52'1 0.8
2014-Jul-29 08:33N 37°57' W 008°53'1 0.2
2014-Jul-29 02:19N 37°57' W 008°52'1 1.3
2014-Jul-29 01:33N 37°56' W 008°51'1 1.0
2014-Jul-29 00:33N 37°57' W 008°52'1 1.0
2014-Jul-28 23:33N 37°57' W 008°53'0 0.1
2014-Jul-28 22:33N 37°57' W 008°53'1 0.3
2014-Jul-28 18:33N 37°56' W 008°52'1 0.4
2014-Jul-28 16:08N 37°57' W 008°52'1 1.2
2014-Jul-28 15:33N 37°56' W 008°51'2 1.5
2014-Jul-28 14:33N 37°57' W 008°53'3 1.4
2014-Jul-28 12:33N 37°54' W 008°52'1 0.7
2014-Jul-28 11:33N 37°54' W 008°51'3 3.3
2014-Jul-28 10:33N 37°57' W 008°52'1 0.0
2014-Jul-27 16:33N 37°57' W 008°52'1 1.1
2014-Jul-27 15:33N 37°56' W 008°51'2 2.2
2014-Jul-27 14:33N 37°57' W 008°53'1 0.6
2014-Jul-27 12:23N 37°57' W 008°52'2 0.4
2014-Jul-27 07:33N 37°55' W 008°51'2 2.0
2014-Jul-27 06:33N 37°57' W 008°52'1 1.2
2014-Jul-27 05:33N 37°56' W 008°51'1 0.1
2014-Jul-26 21:18N 37°57' W 008°52'1 1.2
2014-Jul-26 20:33N 37°56' W 008°51'1 0.1
2014-Jul-26 16:33N 37°55' W 008°51'0 0.3
2014-Jul-26 15:33N 37°55' W 008°51'2 0.4
2014-Jul-26 11:14N 37°57' W 008°52'1 1.9
2014-Jul-26 10:33N 37°57' W 008°53'3 1.1
2014-Jul-26 07:33N 37°55' W 008°50'2 0.6
2014-Jul-26 03:24N 37°57' W 008°52'1 1.4
2014-Jul-26 02:33N 37°57' W 008°53'1 0.6
2014-Jul-26 00:32N 37°57' W 008°52'0 0.0
2014-Jul-25 22:07N 37°57' W 008°52'0 0.0
2014-Jul-25 21:33N 37°57' W 008°52'1 0.3
2014-Jul-25 16:33N 37°56' W 008°51'2 0.9
2014-Jul-25 14:33N 37°57' W 008°52'1 0.8
2014-Jul-25 13:33N 37°56' W 008°52'3 0.3
2014-Jul-25 03:33N 37°54' W 008°50'3 0.5
2014-Jul-24 20:33N 37°57' W 008°52'1 0.6
2014-Jul-24 19:34N 37°56' W 008°52'0 0.0
2014-Jul-24 17:33N 37°56' W 008°52'0 0.1
2014-Jul-24 12:33N 37°57' W 008°52'1 0.6
2014-Jul-24 11:33N 37°56' W 008°51'  

Dump ship's entire track history